createdAt,value
2017-10-06T00:00:17.084Z,79.82
2017-10-06T00:02:44.487Z,79.44
2017-10-06T00:05:11.907Z,79.65
2017-10-06T00:07:39.307Z,79.49
2017-10-06T00:10:06.716Z,79.46
2017-10-06T00:12:34.136Z,79.80
2017-10-06T00:15:01.542Z,79.97
2017-10-06T00:17:28.935Z,80.24
2017-10-06T00:19:56.364Z,80.80
2017-10-06T00:22:23.755Z,81.25
2017-10-06T00:24:51.160Z,81.02
2017-10-06T00:27:18.571Z,81.23
2017-10-06T00:29:45.971Z,81.66
2017-10-06T00:32:13.367Z,81.70
2017-10-06T00:34:40.927Z,81.93
2017-10-06T00:37:08.331Z,82.06
2017-10-06T00:39:35.735Z,82.12
2017-10-06T00:42:03.166Z,82.16
2017-10-06T00:44:30.559Z,82.26
2017-10-06T00:46:57.964Z,82.35
2017-10-06T00:49:25.384Z,82.48
2017-10-06T00:51:52.787Z,82.37
2017-10-06T00:54:20.191Z,82.45
2017-10-06T00:56:47.607Z,82.55
2017-10-06T00:59:15.012Z,82.58
2017-10-06T01:01:42.420Z,82.69
2017-10-06T01:04:09.984Z,82.85
2017-10-06T01:06:37.391Z,83.16
2017-10-06T01:09:04.791Z,83.73
2017-10-06T01:11:32.210Z,83.46
2017-10-06T01:13:59.611Z,83.67
2017-10-06T01:16:27.023Z,84.05
2017-10-06T01:18:54.435Z,84.01
2017-10-06T01:21:21.844Z,84.14
2017-10-06T01:23:49.235Z,83.78
2017-10-06T01:26:16.657Z,83.72
2017-10-06T01:28:44.067Z,83.35
2017-10-06T01:31:11.467Z,83.28
2017-10-06T01:33:38.885Z,83.12
2017-10-06T01:36:06.275Z,82.83
2017-10-06T01:38:33.679Z,82.71
2017-10-06T01:41:01.111Z,82.66
2017-10-06T01:43:28.511Z,83.10
2017-10-06T01:45:55.911Z,83.23
2017-10-06T01:48:23.335Z,83.50
2017-10-06T01:50:50.740Z,83.82
2017-10-06T01:53:18.139Z,83.79
2017-10-06T01:55:45.555Z,83.57
2017-10-06T01:58:12.955Z,83.72
2017-10-06T02:00:40.359Z,83.93
2017-10-06T02:03:07.780Z,83.63
2017-10-06T02:05:35.177Z,83.04
2017-10-06T02:08:02.575Z,82.61
2017-10-06T02:10:29.995Z,82.43
2017-10-06T02:12:57.408Z,82.52
2017-10-06T02:15:24.811Z,82.29
2017-10-06T02:17:52.228Z,82.02
2017-10-06T02:20:19.640Z,81.82
2017-10-06T02:22:47.044Z,81.62
2017-10-06T02:25:14.455Z,81.70
2017-10-06T02:27:41.855Z,81.28
2017-10-06T02:30:09.263Z,81.48
2017-10-06T02:32:36.675Z,81.37
2017-10-06T02:35:04.078Z,81.38
2017-10-06T02:37:31.479Z,81.44
2017-10-06T02:39:58.896Z,81.50
2017-10-06T02:42:26.287Z,81.22
2017-10-06T02:44:53.688Z,81.44
2017-10-06T02:47:21.109Z,81.47
2017-10-06T02:49:48.514Z,81.44
2017-10-06T02:52:15.912Z,81.28
2017-10-06T02:54:43.326Z,81.45
2017-10-06T02:57:10.731Z,81.15
2017-10-06T02:59:38.127Z,81.06
2017-10-06T03:02:05.547Z,81.35
2017-10-06T03:04:32.952Z,80.96
2017-10-06T03:07:00.355Z,81.20
2017-10-06T03:09:27.913Z,81.19
2017-10-06T03:11:55.311Z,80.98
2017-10-06T03:14:22.703Z,80.96
2017-10-06T03:16:50.119Z,80.96
2017-10-06T03:19:17.518Z,80.86
2017-10-06T03:21:44.924Z,80.72
2017-10-06T03:24:12.349Z,80.57
2017-10-06T03:26:39.743Z,80.56
2017-10-06T03:29:07.153Z,80.78
2017-10-06T03:31:34.571Z,80.78
2017-10-06T03:34:01.972Z,80.92
2017-10-06T03:36:29.371Z,80.62
2017-10-06T03:38:56.783Z,80.34
2017-10-06T03:41:24.176Z,80.48
2017-10-06T03:43:51.584Z,80.51
2017-10-06T03:46:18.999Z,80.30
2017-10-06T03:48:46.395Z,80.42
2017-10-06T03:51:13.800Z,80.97
2017-10-06T03:53:41.216Z,80.26
2017-10-06T03:56:08.907Z,80.20
2017-10-06T03:58:36.295Z,80.16
2017-10-06T04:01:03.705Z,80.45
2017-10-06T04:03:31.107Z,80.17
2017-10-06T04:05:58.508Z,80.35
2017-10-06T04:08:25.919Z,80.13
2017-10-06T04:10:53.320Z,80.28
2017-10-06T04:13:20.708Z,80.18
2017-10-06T04:15:48.114Z,79.89
2017-10-06T04:18:15.523Z,79.85
2017-10-06T04:20:42.916Z,79.80
2017-10-06T04:23:10.327Z,79.71
2017-10-06T04:25:37.725Z,79.73
2017-10-06T04:28:05.131Z,78.93
2017-10-06T04:30:32.561Z,79.22
2017-10-06T04:32:59.948Z,79.16
2017-10-06T04:35:27.356Z,78.87
2017-10-06T04:37:54.755Z,81.29
2017-10-06T04:40:22.161Z,82.79
2017-10-06T04:42:49.555Z,84.34
2017-10-06T04:45:16.972Z,84.75
2017-10-06T04:47:44.372Z,86.29
2017-10-06T04:50:11.771Z,87.19
2017-10-06T04:52:39.183Z,87.96
2017-10-06T04:55:06.586Z,88.40
2017-10-06T04:57:33.994Z,90.15
2017-10-06T05:00:01.403Z,90.24
2017-10-06T05:02:28.857Z,90.36
2017-10-06T05:04:56.256Z,90.66
2017-10-06T05:07:23.671Z,90.91
2017-10-06T05:09:51.075Z,91.23
2017-10-06T05:12:18.484Z,91.05
2017-10-06T05:14:45.903Z,91.09
2017-10-06T05:17:13.310Z,90.71
2017-10-06T05:19:40.711Z,90.74
2017-10-06T05:22:08.128Z,90.81
2017-10-06T05:24:35.538Z,90.90
2017-10-06T05:27:02.936Z,90.64
2017-10-06T05:29:30.352Z,90.85
2017-10-06T05:31:57.755Z,91.15
2017-10-06T05:34:25.202Z,90.95
2017-10-06T05:36:52.616Z,90.91
2017-10-06T05:39:20.020Z,90.84
2017-10-06T05:41:47.424Z,90.86
2017-10-06T05:44:14.835Z,90.96
2017-10-06T05:46:42.236Z,91.11
2017-10-06T05:49:09.644Z,91.09
2017-10-06T05:51:37.078Z,90.76
2017-10-06T05:54:04.488Z,90.95
2017-10-06T05:56:31.891Z,90.85
2017-10-06T05:58:59.307Z,91.57
2017-10-06T06:01:26.711Z,91.24
2017-10-06T06:03:54.119Z,91.45
2017-10-06T06:06:21.535Z,91.36
2017-10-06T06:08:48.953Z,91.50
2017-10-06T06:11:16.359Z,91.06
2017-10-06T06:13:43.779Z,91.01
2017-10-06T06:16:11.179Z,91.20
2017-10-06T06:18:38.588Z,91.38
2017-10-06T06:21:06.018Z,91.72
2017-10-06T06:23:33.415Z,91.70
2017-10-06T06:26:00.819Z,91.46
2017-10-06T06:28:28.240Z,91.40
2017-10-06T06:30:55.644Z,91.50
2017-10-06T06:33:23.043Z,90.93
2017-10-06T06:35:50.601Z,90.56
2017-10-06T06:38:18.000Z,90.46
2017-10-06T06:40:45.403Z,90.54
2017-10-06T06:43:12.814Z,90.14
2017-10-06T06:45:40.216Z,89.92
2017-10-06T06:48:07.619Z,89.90
2017-10-06T06:50:35.045Z,89.99
2017-10-06T06:53:02.455Z,89.66
2017-10-06T06:55:29.855Z,89.77
2017-10-06T06:57:57.280Z,89.95
2017-10-06T07:00:24.675Z,89.72
2017-10-06T07:02:52.075Z,90.05
2017-10-06T07:05:19.490Z,89.95
2017-10-06T07:07:46.884Z,89.83
2017-10-06T07:10:14.293Z,89.41
2017-10-06T07:12:41.732Z,89.59
2017-10-06T07:15:09.123Z,89.82
2017-10-06T07:17:36.522Z,90.05
2017-10-06T07:20:03.938Z,89.41
2017-10-06T07:22:31.339Z,89.07
2017-10-06T07:24:58.735Z,89.41
2017-10-06T07:27:26.151Z,89.05
2017-10-06T07:29:53.551Z,89.65
2017-10-06T07:32:20.951Z,88.47
2017-10-06T07:34:48.362Z,88.67
2017-10-06T07:37:15.766Z,88.33
2017-10-06T07:39:43.159Z,88.65
2017-10-06T07:42:10.571Z,88.04
2017-10-06T07:44:37.971Z,88.04
2017-10-06T07:47:05.375Z,88.41
2017-10-06T07:49:32.798Z,88.83
2017-10-06T07:52:00.199Z,88.25
2017-10-06T07:54:27.601Z,88.69
2017-10-06T07:56:55.015Z,88.82
2017-10-06T07:59:22.417Z,88.81
2017-10-06T08:01:49.815Z,88.44
2017-10-06T08:04:17.222Z,87.56
2017-10-06T08:06:44.619Z,88.04
2017-10-06T08:09:12.015Z,87.28
2017-10-06T08:11:39.423Z,87.08
2017-10-06T08:14:06.817Z,87.35
2017-10-06T08:16:34.211Z,88.04
2017-10-06T08:19:01.619Z,86.65
2017-10-06T08:21:29.045Z,86.56
2017-10-06T08:23:56.443Z,86.65
2017-10-06T08:26:23.851Z,86.80
2017-10-06T08:28:51.272Z,86.64
2017-10-06T08:31:18.679Z,85.85
2017-10-06T08:33:46.100Z,85.98
2017-10-06T08:36:13.487Z,84.48
2017-10-06T08:38:40.879Z,85.18
2017-10-06T08:41:08.284Z,84.79
2017-10-06T08:43:35.682Z,84.66
2017-10-06T08:46:03.076Z,84.56
2017-10-06T08:48:30.495Z,82.75
2017-10-06T08:50:57.887Z,83.99
2017-10-06T08:53:25.276Z,83.17
2017-10-06T08:55:52.687Z,82.90
2017-10-06T08:58:20.085Z,83.50
2017-10-06T09:00:47.479Z,82.19
2017-10-06T09:03:14.887Z,82.15
2017-10-06T09:05:42.295Z,81.41
2017-10-06T09:08:09.695Z,82.85
2017-10-06T09:10:37.119Z,83.66
2017-10-06T09:13:04.515Z,85.41
2017-10-06T09:15:31.912Z,86.73
2017-10-06T09:17:59.347Z,88.13
2017-10-06T09:20:26.747Z,87.84
2017-10-06T09:22:54.147Z,89.28
2017-10-06T09:25:21.572Z,88.02
2017-10-06T09:27:48.972Z,88.15
2017-10-06T09:30:16.376Z,88.12
2017-10-06T09:32:43.798Z,89.02
2017-10-06T09:35:11.204Z,88.89
2017-10-06T09:37:38.595Z,89.73
2017-10-06T09:40:06.011Z,88.91
2017-10-06T09:42:33.407Z,89.72
2017-10-06T09:45:00.807Z,89.25
2017-10-06T09:47:28.225Z,89.75
2017-10-06T09:49:55.634Z,89.87
2017-10-06T09:52:23.032Z,89.36
2017-10-06T09:54:50.451Z,90.18
2017-10-06T09:57:17.851Z,89.62
2017-10-06T09:59:45.264Z,88.97
2017-10-06T10:02:12.664Z,89.21
2017-10-06T10:04:40.067Z,90.47
2017-10-06T10:07:07.468Z,89.47
2017-10-06T10:09:34.879Z,88.80
2017-10-06T10:12:02.301Z,88.54
2017-10-06T10:14:29.698Z,87.36
2017-10-06T10:16:57.111Z,88.94
2017-10-06T10:19:24.516Z,86.04
2017-10-06T10:21:51.915Z,84.59
2017-10-06T10:24:19.319Z,87.01
2017-10-06T10:26:46.719Z,87.79
2017-10-06T10:29:14.115Z,87.41
2017-10-06T10:31:41.527Z,84.80
2017-10-06T10:34:08.922Z,81.88
2017-10-06T10:36:36.312Z,80.67
2017-10-06T10:39:03.716Z,81.43
2017-10-06T10:41:31.115Z,82.44
2017-10-06T10:43:58.515Z,82.51
2017-10-06T10:46:25.927Z,84.51
2017-10-06T10:48:53.329Z,85.41
2017-10-06T10:51:20.719Z,85.34
2017-10-06T10:53:48.123Z,83.29
2017-10-06T10:56:15.516Z,84.60
2017-10-06T10:58:42.912Z,85.74
2017-10-06T11:01:10.331Z,86.87
2017-10-06T11:03:37.730Z,87.26
2017-10-06T11:06:05.124Z,86.74
2017-10-06T11:08:32.523Z,87.12
2017-10-06T11:10:59.915Z,86.72
2017-10-06T11:13:27.306Z,88.60
2017-10-06T11:15:54.715Z,86.61
2017-10-06T11:18:22.103Z,86.67
2017-10-06T11:20:49.506Z,87.15
2017-10-06T11:23:16.919Z,85.12
2017-10-06T11:25:44.341Z,86.40
2017-10-06T11:28:11.747Z,85.12
2017-10-06T11:30:39.150Z,84.78
2017-10-06T11:33:06.575Z,86.59
2017-10-06T11:35:33.981Z,85.67
2017-10-06T11:38:01.405Z,84.51
2017-10-06T11:40:28.805Z,84.90
2017-10-06T11:42:56.207Z,83.54
2017-10-06T11:45:23.619Z,82.61
2017-10-06T11:47:51.021Z,82.30
2017-10-06T11:50:18.427Z,80.55
2017-10-06T11:52:45.839Z,81.33
2017-10-06T11:55:13.235Z,79.34
2017-10-06T11:57:40.641Z,80.48
2017-10-06T12:00:08.098Z,81.15
2017-10-06T12:02:35.479Z,81.95
2017-10-06T12:05:02.880Z,80.40
2017-10-06T12:07:30.295Z,81.47
2017-10-06T12:09:57.706Z,80.27
2017-10-06T12:12:25.124Z,81.54
2017-10-06T12:14:52.526Z,83.07
2017-10-06T12:17:19.940Z,82.21
2017-10-06T12:19:47.327Z,83.46
2017-10-06T12:22:14.727Z,83.64
2017-10-06T12:24:42.130Z,82.98
2017-10-06T12:27:09.525Z,82.15
2017-10-06T12:29:36.938Z,80.68
2017-10-06T12:32:04.346Z,78.77
2017-10-06T12:34:31.735Z,78.62
2017-10-06T12:36:59.171Z,81.55
2017-10-06T12:39:26.571Z,80.12
2017-10-06T12:41:54.713Z,76.30
2017-10-06T12:44:22.131Z,75.42
2017-10-06T12:46:49.568Z,72.76
2017-10-06T12:49:17.435Z,74.99
2017-10-06T12:51:44.844Z,75.19
2017-10-06T12:54:12.256Z,75.37
2017-10-06T12:56:39.648Z,76.15
2017-10-06T12:59:07.051Z,76.71
2017-10-06T13:01:34.451Z,76.27
2017-10-06T13:04:01.868Z,80.26
2017-10-06T13:06:29.668Z,81.78
2017-10-06T13:08:57.091Z,81.94
2017-10-06T13:11:24.590Z,84.72
2017-10-06T13:13:53.206Z,85.65
2017-10-06T13:16:21.184Z,85.29
2017-10-06T13:18:48.579Z,86.31
2017-10-06T13:21:15.986Z,86.46
2017-10-06T13:23:44.073Z,86.91
2017-10-06T13:26:13.311Z,86.85
2017-10-06T13:28:40.743Z,85.80
2017-10-06T13:31:08.147Z,86.75
2017-10-06T13:33:35.555Z,84.20
2017-10-06T13:36:02.978Z,85.61
2017-10-06T13:38:30.377Z,86.18
2017-10-06T13:40:57.776Z,86.45
2017-10-06T13:43:25.439Z,86.30
2017-10-06T13:45:52.823Z,84.30
2017-10-06T13:48:20.251Z,85.22
2017-10-06T13:50:47.655Z,84.50
2017-10-06T13:53:15.887Z,83.09
2017-10-06T13:55:44.388Z,82.84
2017-10-06T13:58:12.250Z,81.45
2017-10-06T14:00:39.711Z,81.27
2017-10-06T14:03:07.110Z,82.07
2017-10-06T14:05:34.951Z,81.15
2017-10-06T14:08:02.343Z,81.45
2017-10-06T14:10:29.798Z,80.87
2017-10-06T14:12:57.211Z,81.69
2017-10-06T14:15:24.607Z,80.52
2017-10-06T14:17:52.493Z,81.06
2017-10-06T14:20:19.947Z,82.06
2017-10-06T14:22:48.021Z,80.14
2017-10-06T14:25:15.472Z,82.21
2017-10-06T14:27:42.887Z,79.95
2017-10-06T14:30:10.283Z,77.12
2017-10-06T14:32:37.691Z,77.44
2017-10-06T14:35:05.100Z,77.51
2017-10-06T14:37:32.515Z,78.79
2017-10-06T14:39:59.915Z,77.25
2017-10-06T14:42:27.319Z,78.01
2017-10-06T14:44:54.719Z,78.66
2017-10-06T14:47:22.119Z,80.10
2017-10-06T14:49:49.553Z,83.74
2017-10-06T14:52:16.968Z,86.21
2017-10-06T14:54:44.364Z,87.20
2017-10-06T14:57:11.784Z,88.75
2017-10-06T14:59:39.183Z,90.15
2017-10-06T15:02:06.699Z,91.27
2017-10-06T15:04:35.651Z,91.08
2017-10-06T15:07:03.071Z,91.11
2017-10-06T15:09:30.489Z,90.71
2017-10-06T15:11:57.923Z,91.26
2017-10-06T15:14:25.334Z,91.62
2017-10-06T15:16:52.740Z,92.69
2017-10-06T15:19:21.441Z,93.07
2017-10-06T15:21:48.855Z,92.44
2017-10-06T15:24:16.261Z,92.75
2017-10-06T15:26:43.679Z,93.24
2017-10-06T15:29:11.087Z,93.52
2017-10-06T15:31:39.452Z,93.03
2017-10-06T15:34:06.888Z,93.17
2017-10-06T15:36:34.296Z,93.28
2017-10-06T15:39:02.135Z,93.11
2017-10-06T15:41:29.564Z,92.95
2017-10-06T15:43:56.959Z,92.81
2017-10-06T15:46:24.411Z,92.60
2017-10-06T15:48:51.843Z,92.19
2017-10-06T15:51:19.244Z,92.07
2017-10-06T15:53:46.659Z,91.97
2017-10-06T15:56:14.090Z,91.48
2017-10-06T15:58:41.496Z,91.70
2017-10-06T16:01:09.019Z,91.71
2017-10-06T16:03:36.459Z,91.87
2017-10-06T16:06:04.475Z,92.03
2017-10-06T16:08:40.218Z,92.12
2017-10-06T16:11:07.616Z,92.01
2017-10-06T16:13:35.012Z,92.26
2017-10-06T16:16:02.995Z,92.34
2017-10-06T16:18:31.124Z,92.22
2017-10-06T16:20:58.523Z,92.07
2017-10-06T16:23:27.073Z,91.97
2017-10-06T16:25:54.487Z,91.68
2017-10-06T16:28:21.888Z,91.90
2017-10-06T16:30:49.324Z,91.43
2017-10-06T16:33:16.729Z,91.38
2017-10-06T16:35:44.128Z,90.61
2017-10-06T16:38:11.543Z,90.35
2017-10-06T16:40:39.031Z,91.19
2017-10-06T16:43:06.423Z,91.10
2017-10-06T16:45:33.847Z,91.27
2017-10-06T16:48:01.257Z,91.18
2017-10-06T16:50:28.663Z,91.39
2017-10-06T16:52:56.106Z,91.34
2017-10-06T16:55:23.523Z,91.12
2017-10-06T16:57:50.925Z,91.21
2017-10-06T17:00:18.343Z,91.19
2017-10-06T17:02:45.746Z,91.69
2017-10-06T17:05:13.223Z,91.86
2017-10-06T17:07:40.636Z,91.87
2017-10-06T17:10:08.032Z,91.65
2017-10-06T17:12:35.432Z,91.44
2017-10-06T17:15:02.875Z,90.91
2017-10-06T17:17:30.282Z,90.58
2017-10-06T17:19:57.732Z,91.03
2017-10-06T17:22:25.135Z,90.91
2017-10-06T17:24:52.560Z,91.23
2017-10-06T17:27:19.986Z,91.12
2017-10-06T17:29:47.403Z,91.26
2017-10-06T17:32:14.838Z,91.44
2017-10-06T17:34:42.260Z,90.60
2017-10-06T17:37:10.667Z,90.86
2017-10-06T17:39:38.372Z,91.07
2017-10-06T17:42:05.771Z,91.13
2017-10-06T17:44:34.647Z,91.12
2017-10-06T17:47:02.055Z,91.06
2017-10-06T17:49:29.483Z,91.13
2017-10-06T17:51:57.738Z,91.11
2017-10-06T17:54:25.152Z,91.34
2017-10-06T17:56:52.568Z,91.34
2017-10-06T17:59:20.113Z,91.23
2017-10-06T18:01:48.223Z,91.33
2017-10-06T18:04:15.651Z,91.26
2017-10-06T18:06:43.839Z,91.28
2017-10-06T18:09:11.256Z,91.47
2017-10-06T18:11:38.732Z,91.67
2017-10-06T18:14:06.623Z,91.59
2017-10-06T18:16:35.188Z,91.53
2017-10-06T18:19:02.609Z,91.69
2017-10-06T18:21:30.074Z,91.42
2017-10-06T18:23:57.467Z,91.51
2017-10-06T18:26:24.871Z,91.33
2017-10-06T18:28:52.287Z,91.40
2017-10-06T18:31:19.747Z,91.46
2017-10-06T18:33:47.159Z,91.77
2017-10-06T18:36:14.612Z,91.98
2017-10-06T18:38:42.003Z,91.81
2017-10-06T18:41:09.447Z,91.62
2017-10-06T18:43:36.847Z,91.79
2017-10-06T18:46:04.247Z,91.86
2017-10-06T18:48:31.655Z,91.73
2017-10-06T18:50:59.074Z,91.89
2017-10-06T18:53:26.480Z,91.91
2017-10-06T18:55:53.891Z,92.16
2017-10-06T18:58:21.340Z,92.01
2017-10-06T19:00:48.748Z,91.95
2017-10-06T19:03:16.127Z,92.35
2017-10-06T19:05:43.656Z,92.47
2017-10-06T19:08:11.059Z,92.19
2017-10-06T19:10:38.475Z,91.73
2017-10-06T19:13:05.891Z,91.93
2017-10-06T19:15:33.307Z,91.83
2017-10-06T19:18:00.703Z,92.05
2017-10-06T19:20:28.135Z,92.17
2017-10-06T19:22:55.543Z,91.99
2017-10-06T19:25:22.955Z,92.23
2017-10-06T19:27:50.379Z,92.21
2017-10-06T19:30:17.784Z,92.24
2017-10-06T19:32:45.227Z,92.44
2017-10-06T19:35:12.640Z,92.11
2017-10-06T19:37:40.055Z,92.16
2017-10-06T19:40:07.490Z,92.23
2017-10-06T19:42:34.903Z,92.60
2017-10-06T19:45:02.323Z,92.76
2017-10-06T19:47:29.711Z,92.78
2017-10-06T19:49:57.155Z,92.71
2017-10-06T19:52:24.568Z,92.59
2017-10-06T19:54:51.975Z,92.19
2017-10-06T19:57:19.386Z,92.11
2017-10-06T19:59:46.795Z,92.15
2017-10-06T20:02:14.203Z,91.39
2017-10-06T20:04:41.610Z,91.71
2017-10-06T20:07:09.045Z,90.94
2017-10-06T20:09:36.463Z,91.21
2017-10-06T20:12:03.895Z,90.61
2017-10-06T20:14:31.287Z,91.09
2017-10-06T20:16:58.709Z,91.02
2017-10-06T20:19:26.111Z,90.96
2017-10-06T20:21:53.527Z,91.25
2017-10-06T20:24:21.028Z,90.96
2017-10-06T20:26:48.480Z,91.20
2017-10-06T20:29:15.901Z,91.11
2017-10-06T20:31:44.127Z,91.00
2017-10-06T20:34:11.700Z,91.29
2017-10-06T20:36:39.087Z,90.40
2017-10-06T20:39:06.512Z,91.19
2017-10-06T20:41:33.923Z,90.99
2017-10-06T20:44:01.327Z,90.95
2017-10-06T20:46:28.739Z,90.52
2017-10-06T20:48:56.160Z,90.28
2017-10-06T20:51:23.587Z,90.77
2017-10-06T20:53:51.023Z,90.72
2017-10-06T20:56:18.462Z,90.74
2017-10-06T20:58:45.867Z,90.44
2017-10-06T21:01:13.279Z,90.63
2017-10-06T21:03:40.695Z,90.76
2017-10-06T21:06:08.106Z,90.31
2017-10-06T21:08:35.531Z,90.61
2017-10-06T21:11:02.939Z,90.47
2017-10-06T21:13:30.355Z,90.61
2017-10-06T21:15:57.781Z,90.81
2017-10-06T21:18:25.184Z,90.24
2017-10-06T21:20:52.632Z,90.33
2017-10-06T21:23:20.024Z,90.31
2017-10-06T21:25:47.458Z,90.29
2017-10-06T21:28:14.863Z,90.22
2017-10-06T21:30:42.265Z,90.22
2017-10-06T21:33:09.691Z,90.56
2017-10-06T21:35:37.116Z,90.53
2017-10-06T21:38:04.515Z,90.62
2017-10-06T21:40:32.011Z,90.54
2017-10-06T21:42:59.407Z,90.62
2017-10-06T21:45:26.808Z,90.13
2017-10-06T21:47:54.220Z,90.13
2017-10-06T21:50:21.627Z,90.21
2017-10-06T21:52:49.028Z,90.26
2017-10-06T21:55:16.445Z,90.57
2017-10-06T21:57:43.846Z,90.43
2017-10-06T22:00:11.243Z,90.68
2017-10-06T22:02:38.670Z,90.04
2017-10-06T22:05:06.059Z,89.77
2017-10-06T22:07:33.461Z,89.90
2017-10-06T22:10:00.884Z,90.32
2017-10-06T22:12:28.291Z,89.95
2017-10-06T22:14:55.704Z,90.54
2017-10-06T22:17:23.116Z,90.19
2017-10-06T22:19:50.519Z,90.58
2017-10-06T22:22:17.928Z,90.29
2017-10-06T22:24:45.347Z,89.89
2017-10-06T22:27:12.755Z,89.27
2017-10-06T22:29:40.159Z,89.49
2017-10-06T22:32:07.641Z,89.50
2017-10-06T22:34:35.043Z,89.40
2017-10-06T22:37:02.456Z,89.35
2017-10-06T22:39:29.876Z,89.36
2017-10-06T22:41:57.274Z,89.85
2017-10-06T22:44:24.678Z,89.68
2017-10-06T22:46:52.097Z,89.83
2017-10-06T22:49:19.494Z,90.14
2017-10-06T22:51:46.899Z,90.41
2017-10-06T22:54:14.317Z,90.60
2017-10-06T22:56:41.711Z,90.32
2017-10-06T22:59:09.131Z,90.31
2017-10-06T23:01:36.531Z,90.40
2017-10-06T23:04:03.936Z,90.57
2017-10-06T23:06:31.328Z,90.52
2017-10-06T23:08:58.744Z,90.35
2017-10-06T23:11:26.143Z,90.30
2017-10-06T23:13:53.556Z,89.49
2017-10-06T23:16:20.968Z,89.66
2017-10-06T23:18:48.375Z,90.02
2017-10-06T23:21:15.771Z,90.48
2017-10-06T23:23:43.194Z,90.67
2017-10-06T23:26:11.319Z,91.08
2017-10-06T23:28:38.732Z,91.69
2017-10-06T23:31:06.290Z,91.84
2017-10-06T23:33:33.691Z,91.60
2017-10-06T23:36:01.095Z,91.66
2017-10-06T23:38:28.503Z,91.64
2017-10-06T23:40:55.899Z,91.74
2017-10-06T23:43:23.302Z,91.60
2017-10-06T23:45:50.710Z,91.86
2017-10-06T23:48:18.123Z,91.73
2017-10-06T23:50:45.518Z,91.80
2017-10-06T23:53:12.942Z,91.53
2017-10-06T23:55:40.341Z,91.28
2017-10-06T23:58:07.738Z,91.27
